sensor_id;sensor_type;location;lat;lon;timestamp;temperature;humidity
60965;DHT22;46834;51.100;6.886;2022-08-03T00:00:05;23.20;41.50
60965;DHT22;46834;51.100;6.886;2022-08-03T00:02:32;23.20;41.60
60965;DHT22;46834;51.100;6.886;2022-08-03T00:04:57;23.20;41.70
60965;DHT22;46834;51.100;6.886;2022-08-03T00:07:23;23.20;41.80
60965;DHT22;46834;51.100;6.886;2022-08-03T00:09:49;23.10;41.80
60965;DHT22;46834;51.100;6.886;2022-08-03T00:12:15;23.10;41.90
60965;DHT22;46834;51.100;6.886;2022-08-03T00:14:41;23.10;42.00
60965;DHT22;46834;51.100;6.886;2022-08-03T00:17:06;23.10;42.10
60965;DHT22;46834;51.100;6.886;2022-08-03T00:19:32;23.00;42.20
60965;DHT22;46834;51.100;6.886;2022-08-03T00:21:58;23.00;42.20
60965;DHT22;46834;51.100;6.886;2022-08-03T00:24:24;23.00;42.30
60965;DHT22;46834;51.100;6.886;2022-08-03T00:26:50;22.90;42.30
60965;DHT22;46834;51.100;6.886;2022-08-03T00:29:16;22.90;42.40
60965;DHT22;46834;51.100;6.886;2022-08-03T00:31:42;22.90;42.60
60965;DHT22;46834;51.100;6.886;2022-08-03T00:34:07;22.90;42.60
60965;DHT22;46834;51.100;6.886;2022-08-03T00:36:33;22.80;42.60
60965;DHT22;46834;51.100;6.886;2022-08-03T00:38:59;22.80;42.60
60965;DHT22;46834;51.100;6.886;2022-08-03T00:41:24;22.80;42.80
60965;DHT22;46834;51.100;6.886;2022-08-03T00:43:50;22.70;42.70
60965;DHT22;46834;51.100;6.886;2022-08-03T00:46:16;22.80;42.80
60965;DHT22;46834;51.100;6.886;2022-08-03T00:48:42;22.70;42.90
60965;DHT22;46834;51.100;6.886;2022-08-03T00:51:07;22.70;43.00
60965;DHT22;46834;51.100;6.886;2022-08-03T00:53:34;22.60;43.00
60965;DHT22;46834;51.100;6.886;2022-08-03T00:56:02;22.60;43.00
60965;DHT22;46834;51.100;6.886;2022-08-03T00:58:27;22.60;43.00
60965;DHT22;46834;51.100;6.886;2022-08-03T01:00:53;22.60;43.10
60965;DHT22;46834;51.100;6.886;2022-08-03T01:03:19;22.60;43.10
60965;DHT22;46834;51.100;6.886;2022-08-03T01:08:40;22.50;43.50
60965;DHT22;46834;51.100;6.886;2022-08-03T01:11:29;22.50;43.60
60965;DHT22;46834;51.100;6.886;2022-08-03T01:14:08;22.50;43.60
60965;DHT22;46834;51.100;6.886;2022-08-03T01:17:04;22.40;43.20
60965;DHT22;46834;51.100;6.886;2022-08-03T01:25:42;22.40;44.10
60965;DHT22;46834;51.100;6.886;2022-08-03T01:31:31;22.30;43.80
60965;DHT22;46834;51.100;6.886;2022-08-03T01:34:06;22.30;43.70
60965;DHT22;46834;51.100;6.886;2022-08-03T01:36:39;22.20;43.60
60965;DHT22;46834;51.100;6.886;2022-08-03T01:39:09;22.20;43.70
60965;DHT22;46834;51.100;6.886;2022-08-03T01:41:48;22.20;43.70
60965;DHT22;46834;51.100;6.886;2022-08-03T01:44:18;22.20;44.00
60965;DHT22;46834;51.100;6.886;2022-08-03T01:46:46;22.20;43.80
60965;DHT22;46834;51.100;6.886;2022-08-03T01:49:15;22.10;43.80
60965;DHT22;46834;51.100;6.886;2022-08-03T01:51:44;22.10;43.80
60965;DHT22;46834;51.100;6.886;2022-08-03T01:54:12;22.10;44.00
60965;DHT22;46834;51.100;6.886;2022-08-03T01:56:40;22.00;43.90
60965;DHT22;46834;51.100;6.886;2022-08-03T01:59:09;22.10;44.10
60965;DHT22;46834;51.100;6.886;2022-08-03T02:01:36;22.00;44.10
60965;DHT22;46834;51.100;6.886;2022-08-03T02:04:04;22.00;44.10
60965;DHT22;46834;51.100;6.886;2022-08-03T02:06:32;21.90;44.10
60965;DHT22;46834;51.100;6.886;2022-08-03T02:09:01;21.90;44.20
60965;DHT22;46834;51.100;6.886;2022-08-03T02:11:30;21.90;44.30
60965;DHT22;46834;51.100;6.886;2022-08-03T02:14:00;21.90;44.50
60965;DHT22;46834;51.100;6.886;2022-08-03T02:16:30;21.90;44.50
60965;DHT22;46834;51.100;6.886;2022-08-03T02:18:59;21.80;44.50
60965;DHT22;46834;51.100;6.886;2022-08-03T02:21:29;21.80;44.50
60965;DHT22;46834;51.100;6.886;2022-08-03T02:23:58;21.80;44.50
60965;DHT22;46834;51.100;6.886;2022-08-03T02:26:28;21.70;44.50
60965;DHT22;46834;51.100;6.886;2022-08-03T02:28:56;21.80;44.90
60965;DHT22;46834;51.100;6.886;2022-08-03T02:31:28;21.70;44.60
60965;DHT22;46834;51.100;6.886;2022-08-03T02:34:00;21.70;44.70
60965;DHT22;46834;51.100;6.886;2022-08-03T02:36:35;21.70;44.80
60965;DHT22;46834;51.100;6.886;2022-08-03T02:39:04;21.70;45.00
60965;DHT22;46834;51.100;6.886;2022-08-03T02:41:36;21.60;44.70
60965;DHT22;46834;51.100;6.886;2022-08-03T02:44:08;21.70;45.00
60965;DHT22;46834;51.100;6.886;2022-08-03T02:46:37;21.70;44.90
60965;DHT22;46834;51.100;6.886;2022-08-03T02:49:08;21.60;44.90
60965;DHT22;46834;51.100;6.886;2022-08-03T02:51:38;21.60;44.90
60965;DHT22;46834;51.100;6.886;2022-08-03T02:54:05;21.60;45.00
60965;DHT22;46834;51.100;6.886;2022-08-03T02:56:34;21.50;44.90
60965;DHT22;46834;51.100;6.886;2022-08-03T02:59:02;21.50;45.00
60965;DHT22;46834;51.100;6.886;2022-08-03T03:01:30;21.50;45.00
60965;DHT22;46834;51.100;6.886;2022-08-03T03:03:57;21.50;45.10
60965;DHT22;46834;51.100;6.886;2022-08-03T03:06:24;21.40;45.00
60965;DHT22;46834;51.100;6.886;2022-08-03T03:08:51;21.40;45.10
60965;DHT22;46834;51.100;6.886;2022-08-03T03:11:20;21.40;45.10
60965;DHT22;46834;51.100;6.886;2022-08-03T03:13:48;21.40;45.30
60965;DHT22;46834;51.100;6.886;2022-08-03T03:16:15;21.40;45.30
60965;DHT22;46834;51.100;6.886;2022-08-03T03:18:44;21.40;45.30
60965;DHT22;46834;51.100;6.886;2022-08-03T03:21:12;21.30;45.30
60965;DHT22;46834;51.100;6.886;2022-08-03T03:23:41;21.30;45.30
60965;DHT22;46834;51.100;6.886;2022-08-03T03:26:08;21.40;45.40
60965;DHT22;46834;51.100;6.886;2022-08-03T03:28:34;21.30;45.40
60965;DHT22;46834;51.100;6.886;2022-08-03T03:31:05;21.30;45.40
60965;DHT22;46834;51.100;6.886;2022-08-03T03:33:35;21.30;45.50
60965;DHT22;46834;51.100;6.886;2022-08-03T03:36:03;21.30;45.70
60965;DHT22;46834;51.100;6.886;2022-08-03T03:38:31;21.20;45.60
60965;DHT22;46834;51.100;6.886;2022-08-03T03:40:58;21.30;45.60
60965;DHT22;46834;51.100;6.886;2022-08-03T03:43:25;21.20;45.60
60965;DHT22;46834;51.100;6.886;2022-08-03T03:45:51;21.20;45.60
60965;DHT22;46834;51.100;6.886;2022-08-03T03:48:18;21.10;45.70
60965;DHT22;46834;51.100;6.886;2022-08-03T03:50:45;21.10;45.70
60965;DHT22;46834;51.100;6.886;2022-08-03T03:53:12;21.10;45.80
60965;DHT22;46834;51.100;6.886;2022-08-03T03:55:39;21.10;45.90
60965;DHT22;46834;51.100;6.886;2022-08-03T03:58:05;21.10;45.90
60965;DHT22;46834;51.100;6.886;2022-08-03T04:00:32;21.10;45.90
60965;DHT22;46834;51.100;6.886;2022-08-03T04:02:58;21.10;46.00
60965;DHT22;46834;51.100;6.886;2022-08-03T04:05:24;21.00;46.00
60965;DHT22;46834;51.100;6.886;2022-08-03T04:08:13;21.10;46.00
60965;DHT22;46834;51.100;6.886;2022-08-03T04:11:23;21.20;46.20
60965;DHT22;46834;51.100;6.886;2022-08-03T04:13:54;21.10;46.30
60965;DHT22;46834;51.100;6.886;2022-08-03T04:16:33;21.10;46.10
60965;DHT22;46834;51.100;6.886;2022-08-03T04:19:07;21.10;46.40
60965;DHT22;46834;51.100;6.886;2022-08-03T04:21:37;21.10;46.30
60965;DHT22;46834;51.100;6.886;2022-08-03T04:24:08;21.00;46.20
60965;DHT22;46834;51.100;6.886;2022-08-03T04:26:37;21.00;46.20
60965;DHT22;46834;51.100;6.886;2022-08-03T04:29:05;21.10;46.30
60965;DHT22;46834;51.100;6.886;2022-08-03T04:31:34;21.00;46.20
60965;DHT22;46834;51.100;6.886;2022-08-03T04:34:03;21.10;46.30
60965;DHT22;46834;51.100;6.886;2022-08-03T04:36:32;21.00;46.30
60965;DHT22;46834;51.100;6.886;2022-08-03T04:39:12;21.10;46.50
60965;DHT22;46834;51.100;6.886;2022-08-03T04:41:42;21.10;46.60
60965;DHT22;46834;51.100;6.886;2022-08-03T04:44:12;21.10;46.40
60965;DHT22;46834;51.100;6.886;2022-08-03T04:46:39;21.10;46.50
60965;DHT22;46834;51.100;6.886;2022-08-03T04:49:06;21.10;46.50
60965;DHT22;46834;51.100;6.886;2022-08-03T04:51:33;21.10;46.50
60965;DHT22;46834;51.100;6.886;2022-08-03T04:54:03;21.20;46.60
60965;DHT22;46834;51.100;6.886;2022-08-03T04:56:29;21.20;46.60
60965;DHT22;46834;51.100;6.886;2022-08-03T04:58:55;21.20;46.60
60965;DHT22;46834;51.100;6.886;2022-08-03T05:01:20;21.20;46.60
60965;DHT22;46834;51.100;6.886;2022-08-03T05:03:47;21.20;46.60
60965;DHT22;46834;51.100;6.886;2022-08-03T05:06:13;21.20;46.60
60965;DHT22;46834;51.100;6.886;2022-08-03T05:08:39;21.30;46.80
60965;DHT22;46834;51.100;6.886;2022-08-03T05:11:04;21.30;46.70
60965;DHT22;46834;51.100;6.886;2022-08-03T05:13:30;21.30;46.70
60965;DHT22;46834;51.100;6.886;2022-08-03T05:15:56;21.30;46.70
60965;DHT22;46834;51.100;6.886;2022-08-03T05:18:22;21.30;46.70
60965;DHT22;46834;51.100;6.886;2022-08-03T05:20:47;21.30;46.80
60965;DHT22;46834;51.100;6.886;2022-08-03T05:23:13;21.40;46.80
60965;DHT22;46834;51.100;6.886;2022-08-03T05:25:39;21.40;46.80
60965;DHT22;46834;51.100;6.886;2022-08-03T05:28:05;21.40;46.80
60965;DHT22;46834;51.100;6.886;2022-08-03T05:30:31;21.40;46.80
60965;DHT22;46834;51.100;6.886;2022-08-03T05:32:56;21.50;46.80
60965;DHT22;46834;51.100;6.886;2022-08-03T05:35:22;21.50;46.80
60965;DHT22;46834;51.100;6.886;2022-08-03T05:37:50;21.50;46.80
60965;DHT22;46834;51.100;6.886;2022-08-03T05:40:15;21.50;46.80
60965;DHT22;46834;51.100;6.886;2022-08-03T05:42:41;21.60;46.80
60965;DHT22;46834;51.100;6.886;2022-08-03T05:45:07;21.60;46.80
60965;DHT22;46834;51.100;6.886;2022-08-03T05:47:43;21.60;46.80
60965;DHT22;46834;51.100;6.886;2022-08-03T05:50:10;21.70;46.90
60965;DHT22;46834;51.100;6.886;2022-08-03T05:52:38;21.70;46.90
60965;DHT22;46834;51.100;6.886;2022-08-03T05:55:09;21.70;46.90
60965;DHT22;46834;51.100;6.886;2022-08-03T05:57:37;21.80;46.90
60965;DHT22;46834;51.100;6.886;2022-08-03T06:00:08;21.80;46.90
60965;DHT22;46834;51.100;6.886;2022-08-03T06:02:35;21.90;47.00
60965;DHT22;46834;51.100;6.886;2022-08-03T06:05:01;21.90;46.80
60965;DHT22;46834;51.100;6.886;2022-08-03T06:07:27;22.00;46.80
60965;DHT22;46834;51.100;6.886;2022-08-03T06:09:53;22.10;46.90
60965;DHT22;46834;51.100;6.886;2022-08-03T06:12:18;22.20;46.80
60965;DHT22;46834;51.100;6.886;2022-08-03T06:14:45;22.20;46.80
60965;DHT22;46834;51.100;6.886;2022-08-03T06:17:11;22.30;46.80
60965;DHT22;46834;51.100;6.886;2022-08-03T06:19:36;22.30;46.70
60965;DHT22;46834;51.100;6.886;2022-08-03T06:22:03;22.40;46.70
60965;DHT22;46834;51.100;6.886;2022-08-03T06:24:29;22.40;46.60
60965;DHT22;46834;51.100;6.886;2022-08-03T06:26:55;22.40;46.50
60965;DHT22;46834;51.100;6.886;2022-08-03T06:29:20;22.50;46.50
60965;DHT22;46834;51.100;6.886;2022-08-03T06:31:46;22.50;46.40
60965;DHT22;46834;51.100;6.886;2022-08-03T06:34:12;22.60;46.50
60965;DHT22;46834;51.100;6.886;2022-08-03T06:36:38;22.60;46.50
60965;DHT22;46834;51.100;6.886;2022-08-03T06:39:04;22.70;46.80
60965;DHT22;46834;51.100;6.886;2022-08-03T06:41:29;23.00;47.40
60965;DHT22;46834;51.100;6.886;2022-08-03T06:43:55;23.40;48.10
60965;DHT22;46834;51.100;6.886;2022-08-03T06:46:21;24.00;48.80
60965;DHT22;46834;51.100;6.886;2022-08-03T06:48:47;24.70;49.10
60965;DHT22;46834;51.100;6.886;2022-08-03T06:51:13;25.50;49.20
60965;DHT22;46834;51.100;6.886;2022-08-03T06:53:39;26.50;49.00
60965;DHT22;46834;51.100;6.886;2022-08-03T06:56:06;27.40;48.40
60965;DHT22;46834;51.100;6.886;2022-08-03T06:58:33;28.30;47.60
60965;DHT22;46834;51.100;6.886;2022-08-03T07:00:59;29.20;47.00
60965;DHT22;46834;51.100;6.886;2022-08-03T07:03:25;30.10;46.30
60965;DHT22;46834;51.100;6.886;2022-08-03T07:05:51;31.00;45.60
60965;DHT22;46834;51.100;6.886;2022-08-03T07:08:17;31.80;44.80
60965;DHT22;46834;51.100;6.886;2022-08-03T07:10:43;32.60;44.00
60965;DHT22;46834;51.100;6.886;2022-08-03T07:13:10;33.50;43.10
60965;DHT22;46834;51.100;6.886;2022-08-03T07:15:36;34.30;42.30
60965;DHT22;46834;51.100;6.886;2022-08-03T07:18:03;35.00;41.40
60965;DHT22;46834;51.100;6.886;2022-08-03T07:20:28;35.70;40.60
60965;DHT22;46834;51.100;6.886;2022-08-03T07:22:54;36.40;39.90
60965;DHT22;46834;51.100;6.886;2022-08-03T07:25:20;37.00;39.10
60965;DHT22;46834;51.100;6.886;2022-08-03T07:27:47;37.60;38.40
60965;DHT22;46834;51.100;6.886;2022-08-03T07:30:15;38.10;37.50
60965;DHT22;46834;51.100;6.886;2022-08-03T07:32:43;38.60;36.90
60965;DHT22;46834;51.100;6.886;2022-08-03T07:35:09;39.00;36.10
60965;DHT22;46834;51.100;6.886;2022-08-03T07:37:36;39.40;35.40
60965;DHT22;46834;51.100;6.886;2022-08-03T07:40:03;39.70;34.80
60965;DHT22;46834;51.100;6.886;2022-08-03T07:42:30;40.00;34.00
60965;DHT22;46834;51.100;6.886;2022-08-03T07:44:56;40.30;33.80
60965;DHT22;46834;51.100;6.886;2022-08-03T07:47:25;40.40;33.00
60965;DHT22;46834;51.100;6.886;2022-08-03T07:49:52;40.40;32.20
60965;DHT22;46834;51.100;6.886;2022-08-03T07:52:19;40.30;31.60
60965;DHT22;46834;51.100;6.886;2022-08-03T07:55:05;40.10;31.00
60965;DHT22;46834;51.100;6.886;2022-08-03T07:57:32;39.80;30.60
60965;DHT22;46834;51.100;6.886;2022-08-03T07:59:59;39.30;30.20
60965;DHT22;46834;51.100;6.886;2022-08-03T08:02:25;38.90;30.20
60965;DHT22;46834;51.100;6.886;2022-08-03T08:04:50;38.20;30.00
60965;DHT22;46834;51.100;6.886;2022-08-03T08:07:16;37.60;30.00
60965;DHT22;46834;51.100;6.886;2022-08-03T08:09:42;37.00;30.10
60965;DHT22;46834;51.100;6.886;2022-08-03T08:12:08;36.40;30.30
60965;DHT22;46834;51.100;6.886;2022-08-03T08:14:35;35.80;30.60
60965;DHT22;46834;51.100;6.886;2022-08-03T08:17:01;35.30;30.90
60965;DHT22;46834;51.100;6.886;2022-08-03T08:19:26;34.90;31.10
60965;DHT22;46834;51.100;6.886;2022-08-03T08:21:52;34.30;31.30
60965;DHT22;46834;51.100;6.886;2022-08-03T08:24:18;34.00;31.70
60965;DHT22;46834;51.100;6.886;2022-08-03T08:26:44;33.50;31.90
60965;DHT22;46834;51.100;6.886;2022-08-03T08:29:09;33.20;32.00
60965;DHT22;46834;51.100;6.886;2022-08-03T08:31:35;32.80;32.20
60965;DHT22;46834;51.100;6.886;2022-08-03T08:34:01;32.50;32.40
60965;DHT22;46834;51.100;6.886;2022-08-03T08:36:31;32.20;32.60
60965;DHT22;46834;51.100;6.886;2022-08-03T08:38:58;31.90;32.90
60965;DHT22;46834;51.100;6.886;2022-08-03T08:41:23;31.70;33.20
60965;DHT22;46834;51.100;6.886;2022-08-03T08:43:49;31.40;33.40
60965;DHT22;46834;51.100;6.886;2022-08-03T08:46:15;31.20;33.50
60965;DHT22;46834;51.100;6.886;2022-08-03T08:48:48;31.00;33.80
60965;DHT22;46834;51.100;6.886;2022-08-03T08:51:19;30.90;33.90
60965;DHT22;46834;51.100;6.886;2022-08-03T08:53:51;30.70;34.10
60965;DHT22;46834;51.100;6.886;2022-08-03T08:56:19;30.60;34.20
60965;DHT22;46834;51.100;6.886;2022-08-03T08:58:57;30.50;34.50
60965;DHT22;46834;51.100;6.886;2022-08-03T09:01:25;30.40;35.20
60965;DHT22;46834;51.100;6.886;2022-08-03T09:03:52;30.20;34.40
60965;DHT22;46834;51.100;6.886;2022-08-03T09:06:19;30.10;34.60
60965;DHT22;46834;51.100;6.886;2022-08-03T09:08:45;30.00;34.50
60965;DHT22;46834;51.100;6.886;2022-08-03T09:11:11;30.00;34.70
60965;DHT22;46834;51.100;6.886;2022-08-03T09:13:37;29.90;34.80
60965;DHT22;46834;51.100;6.886;2022-08-03T09:16:18;29.90;34.80
60965;DHT22;46834;51.100;6.886;2022-08-03T09:18:51;29.80;34.80
60965;DHT22;46834;51.100;6.886;2022-08-03T09:21:19;29.70;35.00
60965;DHT22;46834;51.100;6.886;2022-08-03T09:23:52;29.70;35.00
60965;DHT22;46834;51.100;6.886;2022-08-03T09:26:20;29.70;34.90
60965;DHT22;46834;51.100;6.886;2022-08-03T09:31:35;29.60;35.10
60965;DHT22;46834;51.100;6.886;2022-08-03T09:34:07;29.60;35.10
60965;DHT22;46834;51.100;6.886;2022-08-03T09:36:35;29.60;35.70
60965;DHT22;46834;51.100;6.886;2022-08-03T09:39:14;29.60;35.30
60965;DHT22;46834;51.100;6.886;2022-08-03T09:41:47;29.60;35.20
60965;DHT22;46834;51.100;6.886;2022-08-03T09:44:42;29.60;35.30
60965;DHT22;46834;51.100;6.886;2022-08-03T09:47:12;29.60;35.00
60965;DHT22;46834;51.100;6.886;2022-08-03T09:49:40;29.60;35.20
60965;DHT22;46834;51.100;6.886;2022-08-03T09:52:18;29.60;35.30
60965;DHT22;46834;51.100;6.886;2022-08-03T09:54:52;29.60;35.20
60965;DHT22;46834;51.100;6.886;2022-08-03T09:57:22;29.60;35.30
60965;DHT22;46834;51.100;6.886;2022-08-03T09:59:50;29.60;35.00
60965;DHT22;46834;51.100;6.886;2022-08-03T10:02:25;29.60;34.90
60965;DHT22;46834;51.100;6.886;2022-08-03T10:04:52;29.60;34.90
60965;DHT22;46834;51.100;6.886;2022-08-03T10:07:23;29.60;35.00
60965;DHT22;46834;51.100;6.886;2022-08-03T10:09:59;29.50;35.10
60965;DHT22;46834;51.100;6.886;2022-08-03T10:12:27;29.60;35.10
60965;DHT22;46834;51.100;6.886;2022-08-03T10:14:53;29.50;35.00
60965;DHT22;46834;51.100;6.886;2022-08-03T10:17:21;29.50;34.90
60965;DHT22;46834;51.100;6.886;2022-08-03T10:19:48;29.60;35.00
60965;DHT22;46834;51.100;6.886;2022-08-03T10:22:18;29.60;34.80
60965;DHT22;46834;51.100;6.886;2022-08-03T10:25:14;29.60;35.00
60965;DHT22;46834;51.100;6.886;2022-08-03T10:27:42;29.70;35.10
60965;DHT22;46834;51.100;6.886;2022-08-03T10:30:11;29.60;35.00
60965;DHT22;46834;51.100;6.886;2022-08-03T10:32:53;29.60;34.90
60965;DHT22;46834;51.100;6.886;2022-08-03T10:35:24;29.70;34.60
60965;DHT22;46834;51.100;6.886;2022-08-03T10:38:00;29.70;35.10
60965;DHT22;46834;51.100;6.886;2022-08-03T10:40:31;29.70;35.20
60965;DHT22;46834;51.100;6.886;2022-08-03T10:45:48;29.70;35.10
60965;DHT22;46834;51.100;6.886;2022-08-03T10:48:17;29.80;35.10
60965;DHT22;46834;51.100;6.886;2022-08-03T10:50:45;29.80;35.20
60965;DHT22;46834;51.100;6.886;2022-08-03T10:53:13;29.80;35.00
60965;DHT22;46834;51.100;6.886;2022-08-03T10:58:50;29.80;34.90
60965;DHT22;46834;51.100;6.886;2022-08-03T11:01:49;29.90;34.80
60965;DHT22;46834;51.100;6.886;2022-08-03T11:04:21;30.00;34.70
60965;DHT22;46834;51.100;6.886;2022-08-03T11:07:19;30.10;34.80
60965;DHT22;46834;51.100;6.886;2022-08-03T11:09:49;30.10;34.90
60965;DHT22;46834;51.100;6.886;2022-08-03T11:14:53;30.20;34.30
60965;DHT22;46834;51.100;6.886;2022-08-03T11:17:21;30.30;34.30
60965;DHT22;46834;51.100;6.886;2022-08-03T11:19:49;30.30;34.40
60965;DHT22;46834;51.100;6.886;2022-08-03T11:22:17;30.40;34.20
60965;DHT22;46834;51.100;6.886;2022-08-03T11:35:20;30.50;33.80
60965;DHT22;46834;51.100;6.886;2022-08-03T11:40:44;30.50;33.60
60965;DHT22;46834;51.100;6.886;2022-08-03T11:46:06;30.60;33.20
60965;DHT22;46834;51.100;6.886;2022-08-03T11:49:02;30.60;32.90
60965;DHT22;46834;51.100;6.886;2022-08-03T11:51:30;30.60;33.00
60965;DHT22;46834;51.100;6.886;2022-08-03T11:54:00;30.50;33.20
60965;DHT22;46834;51.100;6.886;2022-08-03T11:56:28;30.50;33.10
60965;DHT22;46834;51.100;6.886;2022-08-03T11:59:08;30.50;33.10
60965;DHT22;46834;51.100;6.886;2022-08-03T12:01:34;30.50;33.10
60965;DHT22;46834;51.100;6.886;2022-08-03T12:04:05;30.50;32.80
60965;DHT22;46834;51.100;6.886;2022-08-03T12:06:31;30.60;32.60
60965;DHT22;46834;51.100;6.886;2022-08-03T12:09:19;30.60;32.70
60965;DHT22;46834;51.100;6.886;2022-08-03T12:11:49;30.60;32.70
60965;DHT22;46834;51.100;6.886;2022-08-03T12:14:19;30.60;32.70
60965;DHT22;46834;51.100;6.886;2022-08-03T12:16:48;30.70;33.20
60965;DHT22;46834;51.100;6.886;2022-08-03T12:19:14;30.70;32.80
60965;DHT22;46834;51.100;6.886;2022-08-03T12:21:47;30.70;32.70
60965;DHT22;46834;51.100;6.886;2022-08-03T12:24:14;30.80;32.60
60965;DHT22;46834;51.100;6.886;2022-08-03T12:26:48;30.90;32.90
60965;DHT22;46834;51.100;6.886;2022-08-03T12:29:19;30.90;32.60
60965;DHT22;46834;51.100;6.886;2022-08-03T12:31:47;31.00;32.70
60965;DHT22;46834;51.100;6.886;2022-08-03T12:34:13;31.10;33.00
60965;DHT22;46834;51.100;6.886;2022-08-03T12:36:50;31.00;32.70
60965;DHT22;46834;51.100;6.886;2022-08-03T12:39:22;31.10;32.50
60965;DHT22;46834;51.100;6.886;2022-08-03T12:41:52;31.10;32.60
60965;DHT22;46834;51.100;6.886;2022-08-03T12:44:31;31.20;32.90
60965;DHT22;46834;51.100;6.886;2022-08-03T12:47:00;31.20;32.60
60965;DHT22;46834;51.100;6.886;2022-08-03T12:49:27;31.20;32.50
60965;DHT22;46834;51.100;6.886;2022-08-03T12:54:20;31.30;32.30
60965;DHT22;46834;51.100;6.886;2022-08-03T12:57:07;31.30;32.20
60965;DHT22;46834;51.100;6.886;2022-08-03T12:59:41;31.40;32.20
60965;DHT22;46834;51.100;6.886;2022-08-03T13:02:19;31.40;31.80
60965;DHT22;46834;51.100;6.886;2022-08-03T13:04:47;31.50;31.80
60965;DHT22;46834;51.100;6.886;2022-08-03T13:07:15;31.50;32.00
60965;DHT22;46834;51.100;6.886;2022-08-03T13:09:53;31.50;32.00
60965;DHT22;46834;51.100;6.886;2022-08-03T13:12:22;31.60;31.80
60965;DHT22;46834;51.100;6.886;2022-08-03T13:14:57;31.60;32.00
60965;DHT22;46834;51.100;6.886;2022-08-03T13:17:25;31.60;31.70
60965;DHT22;46834;51.100;6.886;2022-08-03T13:19:52;31.60;31.80
60965;DHT22;46834;51.100;6.886;2022-08-03T13:22:25;31.70;31.70
60965;DHT22;46834;51.100;6.886;2022-08-03T13:24:55;31.70;31.80
60965;DHT22;46834;51.100;6.886;2022-08-03T13:27:22;31.60;31.60
60965;DHT22;46834;51.100;6.886;2022-08-03T13:29:49;31.70;31.50
60965;DHT22;46834;51.100;6.886;2022-08-03T13:32:15;31.70;31.40
60965;DHT22;46834;51.100;6.886;2022-08-03T13:34:41;31.70;31.50
60965;DHT22;46834;51.100;6.886;2022-08-03T13:37:06;31.70;31.50
60965;DHT22;46834;51.100;6.886;2022-08-03T13:39:32;31.80;31.70
60965;DHT22;46834;51.100;6.886;2022-08-03T13:41:58;31.80;31.70
60965;DHT22;46834;51.100;6.886;2022-08-03T13:44:23;31.80;31.60
60965;DHT22;46834;51.100;6.886;2022-08-03T13:46:49;31.90;31.50
60965;DHT22;46834;51.100;6.886;2022-08-03T13:49:15;31.90;31.50
60965;DHT22;46834;51.100;6.886;2022-08-03T13:51:41;31.90;31.30
60965;DHT22;46834;51.100;6.886;2022-08-03T13:54:07;31.90;31.10
60965;DHT22;46834;51.100;6.886;2022-08-03T13:56:33;32.00;31.10
60965;DHT22;46834;51.100;6.886;2022-08-03T13:58:58;32.00;31.10
60965;DHT22;46834;51.100;6.886;2022-08-03T14:01:24;32.00;31.00
60965;DHT22;46834;51.100;6.886;2022-08-03T14:03:51;32.00;30.90
60965;DHT22;46834;51.100;6.886;2022-08-03T14:06:19;32.00;30.80
60965;DHT22;46834;51.100;6.886;2022-08-03T14:08:45;32.10;30.90
60965;DHT22;46834;51.100;6.886;2022-08-03T14:11:12;32.10;30.80
60965;DHT22;46834;51.100;6.886;2022-08-03T14:13:38;32.00;30.60
60965;DHT22;46834;51.100;6.886;2022-08-03T14:16:04;32.00;30.60
60965;DHT22;46834;51.100;6.886;2022-08-03T14:18:31;32.00;30.70
60965;DHT22;46834;51.100;6.886;2022-08-03T14:20:57;32.00;30.80
60965;DHT22;46834;51.100;6.886;2022-08-03T14:23:24;32.00;30.50
60965;DHT22;46834;51.100;6.886;2022-08-03T14:25:50;32.00;30.80
60965;DHT22;46834;51.100;6.886;2022-08-03T14:28:16;32.00;30.60
60965;DHT22;46834;51.100;6.886;2022-08-03T14:30:42;32.00;30.50
60965;DHT22;46834;51.100;6.886;2022-08-03T14:33:08;32.00;30.70
60965;DHT22;46834;51.100;6.886;2022-08-03T14:35:34;32.00;30.50
60965;DHT22;46834;51.100;6.886;2022-08-03T14:37:59;32.00;30.50
60965;DHT22;46834;51.100;6.886;2022-08-03T14:40:25;32.00;30.70
60965;DHT22;46834;51.100;6.886;2022-08-03T14:42:51;32.10;30.60
60965;DHT22;46834;51.100;6.886;2022-08-03T14:45:16;32.00;30.70
60965;DHT22;46834;51.100;6.886;2022-08-03T14:47:42;32.10;30.60
60965;DHT22;46834;51.100;6.886;2022-08-03T14:50:08;32.10;30.50
60965;DHT22;46834;51.100;6.886;2022-08-03T14:52:34;32.10;30.50
60965;DHT22;46834;51.100;6.886;2022-08-03T14:54:59;32.10;30.40
60965;DHT22;46834;51.100;6.886;2022-08-03T14:57:26;32.10;30.40
60965;DHT22;46834;51.100;6.886;2022-08-03T14:59:52;32.10;30.40
60965;DHT22;46834;51.100;6.886;2022-08-03T15:02:18;32.10;30.30
60965;DHT22;46834;51.100;6.886;2022-08-03T15:04:44;32.10;30.20
60965;DHT22;46834;51.100;6.886;2022-08-03T15:07:10;32.10;30.20
60965;DHT22;46834;51.100;6.886;2022-08-03T15:09:36;32.10;30.20
60965;DHT22;46834;51.100;6.886;2022-08-03T15:12:04;32.20;30.10
60965;DHT22;46834;51.100;6.886;2022-08-03T15:14:31;32.20;30.10
60965;DHT22;46834;51.100;6.886;2022-08-03T15:16:56;32.20;30.10
60965;DHT22;46834;51.100;6.886;2022-08-03T15:19:22;32.20;30.00
60965;DHT22;46834;51.100;6.886;2022-08-03T15:21:48;32.20;30.00
60965;DHT22;46834;51.100;6.886;2022-08-03T15:24:14;32.20;30.00
60965;DHT22;46834;51.100;6.886;2022-08-03T15:26:39;32.20;30.00
60965;DHT22;46834;51.100;6.886;2022-08-03T15:29:05;32.20;30.00
60965;DHT22;46834;51.100;6.886;2022-08-03T15:31:32;32.20;30.00
60965;DHT22;46834;51.100;6.886;2022-08-03T15:33:58;32.20;29.90
60965;DHT22;46834;51.100;6.886;2022-08-03T15:36:24;32.20;29.90
60965;DHT22;46834;51.100;6.886;2022-08-03T15:38:51;32.20;30.00
60965;DHT22;46834;51.100;6.886;2022-08-03T15:41:17;32.20;30.00
60965;DHT22;46834;51.100;6.886;2022-08-03T15:43:43;32.10;30.00
60965;DHT22;46834;51.100;6.886;2022-08-03T15:46:11;32.10;30.00
60965;DHT22;46834;51.100;6.886;2022-08-03T15:48:39;32.00;30.00
60965;DHT22;46834;51.100;6.886;2022-08-03T15:51:05;32.00;30.00
60965;DHT22;46834;51.100;6.886;2022-08-03T15:53:32;32.00;30.00
60965;DHT22;46834;51.100;6.886;2022-08-03T15:55:58;32.00;30.00
60965;DHT22;46834;51.100;6.886;2022-08-03T15:58:25;32.00;30.10
60965;DHT22;46834;51.100;6.886;2022-08-03T16:00:58;32.00;30.00
60965;DHT22;46834;51.100;6.886;2022-08-03T16:03:27;32.00;30.00
60965;DHT22;46834;51.100;6.886;2022-08-03T16:06:02;32.00;30.00
60965;DHT22;46834;51.100;6.886;2022-08-03T16:08:29;32.10;30.00
60965;DHT22;46834;51.100;6.886;2022-08-03T16:10:55;32.10;30.00
60965;DHT22;46834;51.100;6.886;2022-08-03T16:13:21;32.10;29.90
60965;DHT22;46834;51.100;6.886;2022-08-03T16:15:47;32.20;29.80
60965;DHT22;46834;51.100;6.886;2022-08-03T16:18:13;32.20;29.80
60965;DHT22;46834;51.100;6.886;2022-08-03T16:20:39;32.20;29.60